createdAt,value
2019-04-11T00:01:53.456Z,7.20
2019-04-11T00:04:24.260Z,7.20
2019-04-11T00:06:56.023Z,7.20
2019-04-11T00:09:27.004Z,7.20
2019-04-11T00:11:57.890Z,7.20
2019-04-11T00:14:29.566Z,7.20
2019-04-11T00:17:00.157Z,7.20
2019-04-11T00:19:31.468Z,7.20
2019-04-11T00:22:02.079Z,7.30
2019-04-11T00:24:32.541Z,7.30
2019-04-11T00:27:03.079Z,7.30
2019-04-11T00:29:34.452Z,7.30
2019-04-11T00:32:07.438Z,7.30
2019-04-11T00:34:37.328Z,7.30
2019-04-11T00:37:08.621Z,7.30
2019-04-11T00:39:40.193Z,7.20
2019-04-11T00:42:10.593Z,7.20
2019-04-11T00:44:41.208Z,7.20
2019-04-11T00:47:11.654Z,7.10
2019-04-11T00:49:42.930Z,7.00
2019-04-11T00:52:14.245Z,7.00
2019-04-11T00:54:44.936Z,7.00
2019-04-11T00:57:15.354Z,7.00
2019-04-11T00:59:46.777Z,6.90
2019-04-11T01:02:17.713Z,7.00
2019-04-11T01:04:48.779Z,7.00
2019-04-11T01:07:19.280Z,7.10
2019-04-11T01:09:50.613Z,7.10
2019-04-11T01:12:21.121Z,7.10
2019-04-11T01:14:51.584Z,7.10
2019-04-11T01:17:23.251Z,7.10
2019-04-11T01:19:53.757Z,7.10
2019-04-11T01:22:24.411Z,7.10
2019-04-11T01:24:55.777Z,7.10
2019-04-11T01:27:26.804Z,7.10
2019-04-11T01:29:57.805Z,7.10
2019-04-11T01:32:28.502Z,7.20
2019-04-11T01:34:59.186Z,7.10
2019-04-11T01:37:29.688Z,7.10
2019-04-11T01:40:02.398Z,7.10
2019-04-11T01:42:33.440Z,7.10
2019-04-11T01:45:05.241Z,7.10
2019-04-11T01:47:57.293Z,7.10
2019-04-11T01:50:31.345Z,7.10
2019-04-11T01:53:02.604Z,7.10
2019-04-11T01:55:33.234Z,7.10
2019-04-11T01:58:04.596Z,7.10
2019-04-11T02:00:54.649Z,7.10
2019-04-11T02:03:51.553Z,7.10
2019-04-11T02:06:23.655Z,7.20
2019-04-11T02:08:54.201Z,7.20
2019-04-11T02:11:25.569Z,7.20
2019-04-11T02:14:09.858Z,7.20
2019-04-11T02:16:29.280Z,7.20
2019-04-11T02:18:59.802Z,7.30
2019-04-11T02:21:30.585Z,7.30
2019-04-11T02:24:07.906Z,7.30
2019-04-11T02:26:38.567Z,7.30
2019-04-11T02:29:09.199Z,7.40
2019-04-11T02:31:39.821Z,7.40
2019-04-11T02:34:11.490Z,7.30
2019-04-11T02:36:42.995Z,7.30
2019-04-11T02:39:18.861Z,7.20
2019-04-11T02:41:46.835Z,7.30
2019-04-11T02:44:52.304Z,7.20
2019-04-11T02:46:58.062Z,7.20
2019-04-11T02:49:23.663Z,7.20
2019-04-11T02:51:55.996Z,7.30
2019-04-11T02:54:28.224Z,7.30
2019-04-11T02:57:00.626Z,7.30
2019-04-11T02:59:31.381Z,7.20
2019-04-11T03:02:01.948Z,7.20
2019-04-11T03:04:32.482Z,7.20
2019-04-11T03:07:03.958Z,7.30
2019-04-11T03:09:35.255Z,7.30
2019-04-11T03:12:07.430Z,7.30
2019-04-11T03:14:54.436Z,7.30
2019-04-11T03:17:17.410Z,7.40
2019-04-11T03:19:58.318Z,7.40
2019-04-11T03:22:15.963Z,7.40
2019-04-11T03:24:47.027Z,7.50
2019-04-11T03:27:19.928Z,7.50
2019-04-11T03:29:51.629Z,7.50
2019-04-11T03:33:27.735Z,7.50
2019-04-11T03:36:01.235Z,7.40
2019-04-11T03:37:53.927Z,7.40
2019-04-11T03:40:23.860Z,7.40
2019-04-11T03:42:47.983Z,7.50
2019-04-11T03:45:26.388Z,7.50
2019-04-11T03:47:48.364Z,7.50
2019-04-11T03:50:16.667Z,7.60
2019-04-11T03:52:43.041Z,7.60
2019-04-11T03:55:15.206Z,7.60
2019-04-11T03:57:46.997Z,7.60
2019-04-11T04:00:19.203Z,7.60
2019-04-11T04:02:50.188Z,7.50
2019-04-11T04:05:21.694Z,7.50
2019-04-11T04:07:52.464Z,7.60
2019-04-11T04:10:25.776Z,7.50
2019-04-11T04:12:58.073Z,7.50
2019-04-11T04:15:59.901Z,7.50
2019-04-11T04:18:40.357Z,7.50
2019-04-11T04:21:31.199Z,7.30
2019-04-11T04:24:03.961Z,7.20
2019-04-11T04:26:35.545Z,7.20
2019-04-11T04:29:07.514Z,7.20
2019-04-11T04:31:38.535Z,7.20
2019-04-11T04:34:09.538Z,7.20
2019-04-11T04:36:40.367Z,7.20
2019-04-11T04:39:12.452Z,7.20
2019-04-11T04:41:53.467Z,7.20
2019-04-11T04:44:19.038Z,7.20
2019-04-11T04:47:00.106Z,7.10
2019-04-11T04:49:23.187Z,7.10
2019-04-11T04:51:55.522Z,7.10
2019-04-11T04:54:25.758Z,7.20
2019-04-11T04:56:56.189Z,7.20
2019-04-11T04:59:28.193Z,7.30
2019-04-11T05:01:59.380Z,7.30
2019-04-11T05:04:31.657Z,7.20
2019-04-11T05:07:03.289Z,7.30
2019-04-11T05:09:34.002Z,7.30
2019-04-11T05:12:05.452Z,7.30
2019-04-11T05:14:37.277Z,7.30
2019-04-11T05:17:08.766Z,7.40
2019-04-11T05:19:40.365Z,7.40
2019-04-11T05:22:10.958Z,7.40
2019-04-11T05:24:41.465Z,7.40
2019-04-11T05:27:12.570Z,7.40
2019-04-11T05:29:43.934Z,7.50
2019-04-11T05:32:15.457Z,7.60
2019-04-11T05:34:46.188Z,7.60
2019-04-11T05:37:16.656Z,7.60
2019-04-11T05:39:48.179Z,7.60
2019-04-11T05:42:19.927Z,7.60
2019-04-11T05:44:51.500Z,7.70
2019-04-11T05:47:22.022Z,7.70
2019-04-11T05:50:15.841Z,7.70
2019-04-11T05:52:46.333Z,7.70
2019-04-11T05:55:17.660Z,7.80
2019-04-11T05:57:48.802Z,7.80
2019-04-11T06:00:36.733Z,7.80
2019-04-11T06:03:09.928Z,7.80
2019-04-11T06:06:08.641Z,7.90
2019-04-11T06:08:39.916Z,7.90
2019-04-11T06:11:24.153Z,8.00
2019-04-11T06:14:03.875Z,7.90
2019-04-11T06:16:39.589Z,8.00
2019-04-11T06:19:28.822Z,8.00
2019-04-11T06:22:04.778Z,8.00
2019-04-11T06:24:53.022Z,8.10
2019-04-11T06:27:42.703Z,8.20
2019-04-11T06:30:31.156Z,8.20
2019-04-11T06:33:16.574Z,8.20
2019-04-11T06:36:21.106Z,8.30
2019-04-11T06:39:21.028Z,8.30
2019-04-11T06:42:24.562Z,8.40
2019-04-11T06:45:19.705Z,8.50
2019-04-11T06:48:03.170Z,8.50
2019-04-11T06:50:52.487Z,8.60
2019-04-11T06:53:30.285Z,8.60
2019-04-11T06:56:14.041Z,8.60
2019-04-11T06:58:52.470Z,8.70
2019-04-11T07:01:25.827Z,8.80
2019-04-11T07:04:00.878Z,8.80
2019-04-11T07:06:33.140Z,8.80
2019-04-11T07:09:35.209Z,8.90
2019-04-11T07:12:13.370Z,8.90
2019-04-11T07:14:48.353Z,8.90
2019-04-11T07:17:37.405Z,9.00
2019-04-11T07:20:29.236Z,9.00
2019-04-11T07:23:17.388Z,9.10
2019-04-11T07:26:10.160Z,9.20
2019-04-11T07:28:56.858Z,9.30
2019-04-11T07:32:02.612Z,9.30
2019-04-11T07:34:52.602Z,9.40
2019-04-11T07:37:36.859Z,9.40
2019-04-11T07:40:29.384Z,9.50
2019-04-11T07:43:19.057Z,9.60
2019-04-11T07:46:17.972Z,9.80
2019-04-11T07:48:48.541Z,10.00
2019-04-11T07:51:27.609Z,10.10
2019-04-11T07:54:00.266Z,10.20
2019-04-11T07:56:42.128Z,10.40
2019-04-11T07:59:21.962Z,10.50
2019-04-11T08:02:10.350Z,10.60
2019-04-11T08:05:02.831Z,10.80
2019-04-11T08:07:55.127Z,11.10
2019-04-11T08:10:33.029Z,11.30
2019-04-11T08:13:07.278Z,11.50
2019-04-11T08:16:08.472Z,11.40
2019-04-11T08:18:55.452Z,11.50
2019-04-11T08:21:44.099Z,11.70
2019-04-11T08:24:20.985Z,11.60
2019-04-11T08:27:09.542Z,11.50
2019-04-11T08:29:40.184Z,11.50
2019-04-11T08:32:39.835Z,11.50
2019-04-11T08:35:40.167Z,11.70
2019-04-11T08:38:16.356Z,12.10
2019-04-11T08:40:53.256Z,12.60
2019-04-11T08:43:31.136Z,12.80
2019-04-11T08:46:06.728Z,13.70
2019-04-11T08:48:39.342Z,14.50
2019-04-11T08:51:09.905Z,14.40
2019-04-11T08:54:02.352Z,13.90
2019-04-11T08:56:32.775Z,13.30
2019-04-11T08:59:49.380Z,13.00
2019-04-11T09:02:42.849Z,13.40
2019-04-11T09:05:35.920Z,13.60
2019-04-11T09:08:44.713Z,13.30
2019-04-11T09:11:24.792Z,13.40
2019-04-11T09:14:24.278Z,13.40
2019-04-11T09:17:26.248Z,13.40
2019-04-11T09:20:34.276Z,13.10
2019-04-11T09:23:13.415Z,12.90
2019-04-11T09:26:12.002Z,13.00
2019-04-11T09:28:45.817Z,13.10
2019-04-11T09:31:41.969Z,12.90
2019-04-11T09:34:31.300Z,12.80
2019-04-11T09:37:23.743Z,12.80
2019-04-11T09:40:26.374Z,12.70
2019-04-11T09:43:22.149Z,13.00
2019-04-11T09:46:10.408Z,13.20
2019-04-11T09:48:58.638Z,13.30
2019-04-11T09:51:52.298Z,13.20
2019-04-11T09:55:00.845Z,12.80
2019-04-11T09:57:40.163Z,12.50
2019-04-11T10:00:28.856Z,12.80
2019-04-11T10:03:25.491Z,13.00
2019-04-11T10:06:28.131Z,13.60
2019-04-11T10:08:59.834Z,13.90
2019-04-11T10:11:56.748Z,14.30
2019-04-11T10:14:29.464Z,14.20
2019-04-11T10:17:17.673Z,14.00
2019-04-11T10:20:12.809Z,14.00
2019-04-11T10:23:20.806Z,14.60
2019-04-11T10:25:57.771Z,16.20
2019-04-11T10:29:02.497Z,17.60
2019-04-11T10:31:36.715Z,18.40
2019-04-11T10:34:29.920Z,18.80
2019-04-11T10:37:03.653Z,18.50
2019-04-11T10:40:00.088Z,18.90
2019-04-11T10:42:31.337Z,18.80
2019-04-11T10:45:31.087Z,18.30
2019-04-11T10:48:05.354Z,17.90
2019-04-11T10:50:54.049Z,17.20
2019-04-11T10:53:26.936Z,17.10
2019-04-11T10:56:26.358Z,17.20
2019-04-11T10:58:59.532Z,17.10
2019-04-11T11:01:48.493Z,17.50
2019-04-11T11:04:25.593Z,18.30
2019-04-11T11:07:00.067Z,19.00
2019-04-11T11:09:38.820Z,19.30
2019-04-11T11:12:29.505Z,19.60
2019-04-11T11:15:17.841Z,19.90
2019-04-11T11:18:33.338Z,20.50
2019-04-11T11:20:55.211Z,21.20
2019-04-11T11:23:40.930Z,21.60
2019-04-11T11:26:19.840Z,22.70
2019-04-11T11:29:13.092Z,22.30
2019-04-11T11:31:46.370Z,22.10
2019-04-11T11:34:28.434Z,21.50
2019-04-11T11:37:29.035Z,21.50
2019-04-11T11:40:18.792Z,21.90
2019-04-11T11:43:27.471Z,21.50
2019-04-11T11:46:32.136Z,20.90
2019-04-11T11:49:10.208Z,20.50
2019-04-11T11:51:51.914Z,19.70
2019-04-11T11:54:27.162Z,20.40
2019-04-11T11:56:59.940Z,22.00
2019-04-11T11:59:52.371Z,23.00
2019-04-11T12:02:51.888Z,23.50
2019-04-11T12:05:29.605Z,23.20
2019-04-11T12:08:15.354Z,23.30
2019-04-11T12:10:54.477Z,23.50
2019-04-11T12:13:40.753Z,25.30
2019-04-11T12:16:19.639Z,25.10
2019-04-11T12:18:55.034Z,24.60
2019-04-11T12:21:29.758Z,24.20
2019-04-11T12:24:32.193Z,24.30
2019-04-11T12:27:20.834Z,25.40
2019-04-11T12:30:09.510Z,27.10
2019-04-11T12:32:46.431Z,25.90
2019-04-11T12:35:25.702Z,25.40
2019-04-11T12:38:00.120Z,24.90
2019-04-11T12:40:52.458Z,24.80
2019-04-11T12:43:22.785Z,24.80
2019-04-11T12:46:10.478Z,25.60
2019-04-11T12:48:47.492Z,25.90
2019-04-11T12:51:36.867Z,25.40
2019-04-11T12:54:12.822Z,24.10
2019-04-11T12:57:05.060Z,24.20
2019-04-11T12:59:35.443Z,24.00
2019-04-11T13:02:26.804Z,23.60
2019-04-11T13:04:57.728Z,23.50
2019-04-11T13:07:45.891Z,23.70
2019-04-11T13:10:24.099Z,24.20
2019-04-11T13:13:19.507Z,23.00
2019-04-11T13:16:13.078Z,23.90
2019-04-11T13:19:00.400Z,24.30
2019-04-11T13:21:44.140Z,25.90
2019-04-11T13:24:33.538Z,26.70
2019-04-11T13:27:31.893Z,26.50
2019-04-11T13:30:20.035Z,26.30
2019-04-11T13:32:52.202Z,28.60
2019-04-11T13:35:40.041Z,29.00
2019-04-11T13:38:26.221Z,28.60
2019-04-11T13:41:14.068Z,26.40
2019-04-11T13:43:47.362Z,28.30
2019-04-11T13:46:48.921Z,29.20
2019-04-11T13:49:37.164Z,28.60
2019-04-11T13:52:29.417Z,28.60
2019-04-11T13:55:04.314Z,29.30
2019-04-11T13:57:59.645Z,29.90
2019-04-11T14:00:47.702Z,30.00
2019-04-11T14:03:49.139Z,28.10
2019-04-11T14:06:37.217Z,25.70
2019-04-11T14:09:38.128Z,25.50
2019-04-11T14:12:13.165Z,24.70
2019-04-11T14:14:51.950Z,23.60
2019-04-11T14:17:44.116Z,25.20
2019-04-11T14:20:50.003Z,26.90
2019-04-11T14:23:42.733Z,27.80
2019-04-11T14:26:38.239Z,28.00
2019-04-11T14:29:26.485Z,27.90
2019-04-11T14:32:04.694Z,27.60
2019-04-11T14:34:52.736Z,27.10
2019-04-11T14:37:42.009Z,27.60
2019-04-11T14:40:46.736Z,29.10
2019-04-11T14:43:25.147Z,30.40
2019-04-11T14:46:23.331Z,29.20
2019-04-11T14:49:10.465Z,29.20
2019-04-11T14:51:58.428Z,29.10
2019-04-11T14:54:35.066Z,28.30
2019-04-11T14:57:33.853Z,28.30
2019-04-11T15:00:25.163Z,28.20
2019-04-11T15:03:26.416Z,26.70
2019-04-11T15:06:14.859Z,26.10
2019-04-11T15:09:10.890Z,24.80
2019-04-11T15:11:52.792Z,25.10
2019-04-11T15:14:42.055Z,26.20
2019-04-11T15:17:15.276Z,27.20
2019-04-11T15:19:50.491Z,27.10
2019-04-11T15:22:46.111Z,26.90
2019-04-11T15:25:35.693Z,26.30
2019-04-11T15:28:19.332Z,25.70
2019-04-11T15:30:51.309Z,25.80
2019-04-11T15:33:52.478Z,25.80
2019-04-11T15:36:22.964Z,25.50
2019-04-11T15:39:12.327Z,25.10
2019-04-11T15:41:43.573Z,24.80
2019-04-11T15:44:45.438Z,24.50
2019-04-11T15:47:19.001Z,25.00
2019-04-11T15:50:10.047Z,25.60
2019-04-11T15:52:45.889Z,26.10
2019-04-11T15:55:38.204Z,26.40
2019-04-11T15:58:12.661Z,26.50
2019-04-11T16:01:06.540Z,24.60
2019-04-11T16:03:37.393Z,25.20
2019-04-11T16:06:26.123Z,25.20
2019-04-11T16:08:59.539Z,25.40
2019-04-11T16:11:51.778Z,24.90
2019-04-11T16:14:44.825Z,24.60
2019-04-11T16:17:36.962Z,24.30
2019-04-11T16:20:28.179Z,23.70
2019-04-11T16:23:16.116Z,23.30
2019-04-11T16:25:56.165Z,23.50
2019-04-11T16:28:45.536Z,23.40
2019-04-11T16:31:15.968Z,22.80
2019-04-11T16:33:54.999Z,22.00
2019-04-11T16:36:37.451Z,22.20
2019-04-11T16:39:28.819Z,22.00
2019-04-11T16:42:04.137Z,22.20
2019-04-11T16:44:59.575Z,21.90
2019-04-11T16:47:56.285Z,21.80
2019-04-11T16:50:28.066Z,21.10
2019-04-11T16:52:58.708Z,20.30
2019-04-11T16:55:29.443Z,19.20
2019-04-11T16:57:59.832Z,17.90
2019-04-11T17:00:30.334Z,16.70
2019-04-11T17:03:00.865Z,15.60
2019-04-11T17:05:31.743Z,14.70
2019-04-11T17:08:14.890Z,14.10
2019-04-11T17:11:02.832Z,13.80
2019-04-11T17:13:33.242Z,13.40
2019-04-11T17:16:04.197Z,13.00
2019-04-11T17:18:35.063Z,12.90
2019-04-11T17:21:07.886Z,12.70
2019-04-11T17:23:37.930Z,12.30
2019-04-11T17:26:08.358Z,12.10
2019-04-11T17:28:38.772Z,12.10
2019-04-11T17:31:09.201Z,12.00
2019-04-11T17:33:40.101Z,11.90
2019-04-11T17:36:10.566Z,11.80
2019-04-11T17:38:40.993Z,11.70
2019-04-11T17:41:12.120Z,11.50
2019-04-11T17:43:46.763Z,11.20
2019-04-11T17:46:14.833Z,11.10
2019-04-11T17:48:45.267Z,10.90
2019-04-11T17:51:15.697Z,10.80
2019-04-11T17:53:46.313Z,10.70
2019-04-11T17:56:16.758Z,10.60
2019-04-11T17:58:47.208Z,10.40
2019-04-11T18:01:17.825Z,10.30
2019-04-11T18:03:48.242Z,10.20
2019-04-11T18:06:18.787Z,10.00
2019-04-11T18:08:51.565Z,9.90
2019-04-11T18:11:25.748Z,9.80
2019-04-11T18:13:56.027Z,9.70
2019-04-11T18:16:28.864Z,9.60
2019-04-11T18:18:59.102Z,9.50
2019-04-11T18:21:29.608Z,9.30
2019-04-11T18:24:00.175Z,9.30
2019-04-11T18:26:30.571Z,9.10
2019-04-11T18:29:01.004Z,9.00
2019-04-11T18:31:31.649Z,8.90
2019-04-11T18:34:02.594Z,8.90
2019-04-11T18:36:33.129Z,8.80
2019-04-11T18:39:05.921Z,8.70
2019-04-11T18:41:36.408Z,8.60
2019-04-11T18:44:07.078Z,8.50
2019-04-11T18:46:37.695Z,8.30
2019-04-11T18:49:08.019Z,8.30
2019-04-11T18:51:38.336Z,8.20
2019-04-11T18:54:08.749Z,8.20
2019-04-11T18:56:39.384Z,8.10
2019-04-11T18:59:09.926Z,8.00
2019-04-11T19:01:40.405Z,7.90
2019-04-11T19:04:12.145Z,7.80
2019-04-11T19:06:43.696Z,7.70
2019-04-11T19:09:16.755Z,7.70
2019-04-11T19:11:47.233Z,7.60
2019-04-11T19:14:18.528Z,7.50
2019-04-11T19:16:48.941Z,7.40
2019-04-11T19:19:19.892Z,7.40
2019-04-11T19:21:51.082Z,7.30
2019-04-11T19:24:22.095Z,7.30
2019-04-11T19:26:52.580Z,7.20
2019-04-11T19:29:25.156Z,7.20
2019-04-11T19:31:55.312Z,7.10
2019-04-11T19:34:25.894Z,7.10
2019-04-11T19:36:56.826Z,7.00
2019-04-11T19:39:27.632Z,7.00
2019-04-11T19:41:58.596Z,6.90
2019-04-11T19:44:29.530Z,6.90
2019-04-11T19:47:00.005Z,6.90
2019-04-11T19:49:30.442Z,6.90
2019-04-11T19:52:01.590Z,6.80
2019-04-11T19:54:32.979Z,6.80
2019-04-11T19:57:07.970Z,6.80
2019-04-11T19:59:38.502Z,6.70
2019-04-11T20:02:10.207Z,6.70
2019-04-11T20:04:40.964Z,6.80
2019-04-11T20:07:11.419Z,6.80
2019-04-11T20:09:43.522Z,6.80
2019-04-11T20:12:14.225Z,6.70
2019-04-11T20:14:44.641Z,6.80
2019-04-11T20:17:18.805Z,6.80
2019-04-11T20:19:47.253Z,6.70
2019-04-11T20:22:17.656Z,6.70
2019-04-11T20:24:48.081Z,6.70
2019-04-11T20:27:20.237Z,6.70
2019-04-11T20:29:55.185Z,6.60
2019-04-11T20:32:23.741Z,6.50
2019-04-11T20:34:54.410Z,6.50
2019-04-11T20:37:24.768Z,6.50
2019-04-11T20:39:55.253Z,6.50
2019-04-11T20:42:25.733Z,6.50
2019-04-11T20:44:58.485Z,6.50
2019-04-11T20:47:29.599Z,6.50
2019-04-11T20:50:07.336Z,6.40
2019-04-11T20:52:32.714Z,6.50
2019-04-11T20:55:03.194Z,6.40
2019-04-11T20:57:33.679Z,6.40
2019-04-11T21:00:04.301Z,6.30
2019-04-11T21:02:34.726Z,6.30
2019-04-11T21:05:05.413Z,6.30
2019-04-11T21:07:35.784Z,6.40
2019-04-11T21:10:07.047Z,6.40
2019-04-11T21:12:37.949Z,6.30
2019-04-11T21:15:09.037Z,6.30
2019-04-11T21:17:39.438Z,6.30
2019-04-11T21:20:10.149Z,6.30
2019-04-11T21:22:40.600Z,6.30
2019-04-11T21:25:12.113Z,6.30
2019-04-11T21:27:42.845Z,6.30
2019-04-11T21:30:13.723Z,6.40
2019-04-11T21:32:44.065Z,6.40
2019-04-11T21:35:14.762Z,6.40
2019-04-11T21:37:45.323Z,6.30
2019-04-11T21:40:16.775Z,6.40
2019-04-11T21:42:47.531Z,6.40
2019-04-11T21:45:18.147Z,6.30
2019-04-11T21:47:48.637Z,6.30
2019-04-11T21:50:19.146Z,6.30
2019-04-11T21:52:49.614Z,6.20
2019-04-11T21:55:20.009Z,6.20
2019-04-11T21:57:50.488Z,6.20
2019-04-11T22:00:27.516Z,6.20
2019-04-11T22:02:58.217Z,6.20
2019-04-11T22:05:29.245Z,6.20
2019-04-11T22:08:00.863Z,6.10
2019-04-11T22:10:32.434Z,6.10
2019-04-11T22:13:02.845Z,6.10
2019-04-11T22:15:33.456Z,6.10
2019-04-11T22:18:04.735Z,6.10
2019-04-11T22:20:35.317Z,6.20
2019-04-11T22:23:05.932Z,6.20
2019-04-11T22:25:36.326Z,6.20
2019-04-11T22:28:06.595Z,6.30
2019-04-11T22:30:37.066Z,6.30
2019-04-11T22:33:30.456Z,6.30
2019-04-11T22:36:00.989Z,6.20
2019-04-11T22:38:31.579Z,6.20
2019-04-11T22:41:03.390Z,6.10
2019-04-11T22:43:37.925Z,6.10
2019-04-11T22:46:08.077Z,6.10
2019-04-11T22:48:39.084Z,6.10
2019-04-11T22:51:11.300Z,6.00
2019-04-11T22:53:43.339Z,6.00
2019-04-11T22:56:14.537Z,5.90
2019-04-11T22:58:44.930Z,5.70
2019-04-11T23:01:16.549Z,5.70
2019-04-11T23:03:54.260Z,5.60
2019-04-11T23:06:24.758Z,5.70
2019-04-11T23:08:56.301Z,5.70
2019-04-11T23:11:26.772Z,5.70
2019-04-11T23:13:57.240Z,5.70
2019-04-11T23:16:27.649Z,5.60
2019-04-11T23:18:58.129Z,5.60
2019-04-11T23:21:28.612Z,5.70
2019-04-11T23:23:58.977Z,5.60
2019-04-11T23:26:29.376Z,5.60
2019-04-11T23:28:59.804Z,5.70
2019-04-11T23:31:30.242Z,5.60
2019-04-11T23:34:00.656Z,5.60
2019-04-11T23:36:31.300Z,5.60
2019-04-11T23:39:01.859Z,5.60
2019-04-11T23:41:32.232Z,5.60
2019-04-11T23:44:02.645Z,5.60
2019-04-11T23:46:33.111Z,5.60
2019-04-11T23:49:03.730Z,5.70
2019-04-11T23:51:34.170Z,5.70
2019-04-11T23:54:04.614Z,5.70
2019-04-11T23:56:35.001Z,5.70
2019-04-11T23:59:05.424Z,5.70
